createdAt,value
2019-04-30T00:07:46.238Z,77466.39
2019-04-30T00:10:12.204Z,77462.38
2019-04-30T00:12:39.536Z,77448.37
2019-04-30T00:15:06.209Z,77444.36
2019-04-30T00:17:32.236Z,77436.36
2019-04-30T00:20:00.030Z,77433.36
2019-04-30T00:22:33.983Z,77437.36
2019-04-30T00:24:55.641Z,77440.36
2019-04-30T00:27:26.346Z,77434.36
2019-04-30T00:29:49.628Z,77433.36
2019-04-30T00:32:16.032Z,77437.36
2019-04-30T00:34:42.184Z,77439.36
2019-04-30T00:37:13.980Z,77440.36
2019-04-30T00:39:36.375Z,77440.36
2019-04-30T00:42:02.522Z,77431.35
2019-04-30T00:44:28.981Z,77431.35
2019-04-30T00:47:00.550Z,77431.35
2019-04-30T00:49:24.235Z,77434.36
2019-04-30T00:51:56.724Z,77433.36
2019-04-30T00:54:22.486Z,77434.36
2019-04-30T00:56:46.302Z,77432.35
2019-04-30T00:59:12.562Z,77435.36
2019-04-30T01:01:48.124Z,77429.35
2019-04-30T01:04:15.082Z,77432.35
2019-04-30T01:06:41.159Z,77439.36
2019-04-30T01:09:08.604Z,77435.36
2019-04-30T01:11:35.547Z,77429.35
2019-04-30T01:14:01.677Z,77434.36
2019-04-30T01:16:30.211Z,77431.35
2019-04-30T01:18:58.630Z,77434.36
2019-04-30T01:21:28.956Z,77433.36
2019-04-30T01:23:55.138Z,77425.34
2019-04-30T01:26:22.890Z,77439.36
2019-04-30T01:28:49.467Z,77435.36
2019-04-30T01:31:15.614Z,77440.36
2019-04-30T01:33:41.669Z,77431.35
2019-04-30T01:36:09.657Z,77427.34
2019-04-30T01:38:35.372Z,77423.34
2019-04-30T01:41:01.781Z,77413.34
2019-04-30T01:43:33.000Z,77419.34
2019-04-30T01:46:01.972Z,77417.34
2019-04-30T01:48:26.257Z,77410.33
2019-04-30T01:50:52.263Z,77421.34
2019-04-30T01:53:18.722Z,77413.34
2019-04-30T01:55:59.178Z,77415.34
2019-04-30T01:58:42.702Z,77423.34
2019-04-30T02:01:13.462Z,77422.34
2019-04-30T02:03:40.058Z,77419.34
2019-04-30T02:06:06.292Z,77423.34
2019-04-30T02:08:32.459Z,77425.34
2019-04-30T02:10:59.441Z,77430.35
2019-04-30T02:13:31.180Z,77432.35
2019-04-30T02:15:59.107Z,77435.36
2019-04-30T02:18:25.509Z,77434.36
2019-04-30T02:20:51.565Z,77437.36
2019-04-30T02:23:19.401Z,77439.36
2019-04-30T02:25:45.410Z,77440.36
2019-04-30T02:28:11.779Z,77439.36
2019-04-30T02:30:40.360Z,77439.36
2019-04-30T02:33:05.488Z,77441.36
2019-04-30T02:35:50.084Z,77447.37
2019-04-30T02:38:21.093Z,77449.37
2019-04-30T02:40:49.880Z,77448.37
2019-04-30T02:43:15.238Z,77447.37
2019-04-30T02:45:41.295Z,77455.38
2019-04-30T02:48:11.444Z,77452.38
2019-04-30T02:50:35.101Z,77455.38
2019-04-30T02:53:02.815Z,77453.38
2019-04-30T02:55:33.688Z,77453.38
2019-04-30T02:57:59.644Z,77450.38
2019-04-30T03:00:29.765Z,77451.38
2019-04-30T03:03:00.074Z,77453.38
2019-04-30T03:05:30.952Z,77459.38
2019-04-30T03:08:00.424Z,77458.38
2019-04-30T03:10:26.720Z,77464.38
2019-04-30T03:12:52.784Z,77463.38
2019-04-30T03:15:19.511Z,77469.39
2019-04-30T03:18:00.334Z,77470.39
2019-04-30T03:20:34.624Z,77471.39
2019-04-30T03:22:54.808Z,77472.39
2019-04-30T03:25:20.851Z,77478.40
2019-04-30T03:27:49.687Z,77477.39
2019-04-30T03:30:14.998Z,77487.41
2019-04-30T03:32:42.849Z,77484.41
2019-04-30T03:35:12.773Z,77486.41
2019-04-30T03:37:36.374Z,77483.41
2019-04-30T03:40:03.377Z,77481.40
2019-04-30T03:42:29.587Z,77483.41
2019-04-30T03:44:59.264Z,77482.41
2019-04-30T03:47:25.586Z,77483.41
2019-04-30T03:49:51.481Z,77484.41
2019-04-30T03:52:19.734Z,77481.40
2019-04-30T03:54:45.589Z,77479.40
2019-04-30T03:57:11.502Z,77480.40
2019-04-30T03:59:39.490Z,77484.41
2019-04-30T04:02:12.205Z,77496.42
2019-04-30T04:04:40.054Z,77496.42
2019-04-30T04:07:10.273Z,77495.41
2019-04-30T04:09:39.956Z,77496.42
2019-04-30T04:12:20.817Z,77495.41
2019-04-30T04:14:46.909Z,77490.41
2019-04-30T04:17:12.961Z,77481.40
2019-04-30T04:19:39.364Z,77492.41
2019-04-30T04:22:05.590Z,77487.41
2019-04-30T04:24:31.641Z,77483.41
2019-04-30T04:26:59.656Z,77481.40
2019-04-30T04:29:29.790Z,77475.39
2019-04-30T04:31:56.067Z,77479.40
2019-04-30T04:34:22.100Z,77484.41
2019-04-30T04:36:50.510Z,77481.40
2019-04-30T04:39:15.838Z,77481.40
2019-04-30T04:41:44.205Z,77481.40
2019-04-30T04:44:12.772Z,77478.40
2019-04-30T04:46:40.058Z,77477.39
2019-04-30T04:49:05.013Z,77475.39
2019-04-30T04:51:38.520Z,77479.40
2019-04-30T04:54:00.115Z,77480.40
2019-04-30T04:56:26.931Z,77469.39
2019-04-30T04:58:53.289Z,77474.39
2019-04-30T05:01:20.442Z,77469.39
2019-04-30T05:03:48.828Z,77467.39
2019-04-30T05:06:14.225Z,77473.39
2019-04-30T05:08:40.146Z,77477.39
2019-04-30T05:11:06.221Z,77474.39
2019-04-30T05:13:34.621Z,77470.39
2019-04-30T05:16:00.062Z,77477.39
2019-04-30T05:18:26.109Z,77479.40
2019-04-30T05:20:52.460Z,77478.40
2019-04-30T05:23:19.521Z,77490.41
2019-04-30T05:25:46.198Z,77502.42
2019-04-30T05:28:12.258Z,77501.42
2019-04-30T05:30:39.299Z,77515.44
2019-04-30T05:33:05.398Z,77505.42
2019-04-30T05:35:31.446Z,77488.41
2019-04-30T05:37:59.182Z,77483.41
2019-04-30T05:40:28.702Z,77485.41
2019-04-30T05:42:54.728Z,77486.41
2019-04-30T05:45:20.641Z,77493.41
2019-04-30T05:47:46.544Z,77492.41
2019-04-30T05:50:12.413Z,77492.41
2019-04-30T05:52:39.834Z,77487.41
2019-04-30T05:55:05.939Z,77488.41
2019-04-30T05:57:31.963Z,77478.40
2019-04-30T05:59:58.574Z,77479.40
2019-04-30T06:02:24.671Z,77484.41
2019-04-30T06:04:50.720Z,77492.41
2019-04-30T06:07:18.683Z,77488.41
2019-04-30T06:09:48.087Z,77491.41
2019-04-30T06:12:20.273Z,77488.41
2019-04-30T06:14:51.182Z,77488.41
2019-04-30T06:17:19.591Z,77484.41
2019-04-30T06:19:45.629Z,77491.41
2019-04-30T06:22:11.529Z,77487.41
2019-04-30T06:24:39.408Z,77484.41
2019-04-30T06:27:05.141Z,77489.41
2019-04-30T06:29:31.043Z,77481.40
2019-04-30T06:31:58.667Z,77483.41
2019-04-30T06:34:24.638Z,77486.41
2019-04-30T06:36:53.225Z,77495.41
2019-04-30T06:39:18.767Z,77493.41
2019-04-30T06:41:44.738Z,77494.41
2019-04-30T06:44:11.121Z,77492.41
2019-04-30T06:46:38.458Z,77493.41
2019-04-30T06:49:04.832Z,77492.41
2019-04-30T06:51:30.885Z,77489.41
2019-04-30T06:53:58.605Z,77493.41
2019-04-30T06:56:24.516Z,77493.41
2019-04-30T06:58:52.580Z,77492.41
2019-04-30T07:01:19.076Z,77490.41
2019-04-30T07:03:45.366Z,77488.41
2019-04-30T07:06:11.268Z,77490.41
2019-04-30T07:08:46.933Z,77489.41
2019-04-30T07:11:20.665Z,77492.41
2019-04-30T07:13:51.748Z,77499.42
2019-04-30T07:16:18.851Z,77493.41
2019-04-30T07:18:44.019Z,77490.41
2019-04-30T07:21:10.525Z,77485.41
2019-04-30T07:23:38.601Z,77483.41
2019-04-30T07:26:04.278Z,77476.39
2019-04-30T07:28:43.046Z,77476.39
2019-04-30T07:31:10.221Z,77478.40
2019-04-30T07:33:29.538Z,77480.40
2019-04-30T07:36:01.503Z,77474.39
2019-04-30T07:38:29.509Z,77470.39
2019-04-30T07:40:59.137Z,77475.39
2019-04-30T07:43:28.850Z,77470.39
2019-04-30T07:45:55.657Z,77471.39
2019-04-30T07:48:26.285Z,77468.39
2019-04-30T07:50:51.888Z,77469.39
2019-04-30T07:53:18.774Z,77469.39
2019-04-30T07:55:45.286Z,77464.38
2019-04-30T07:58:11.335Z,77468.39
2019-04-30T08:00:40.076Z,77461.38
2019-04-30T08:03:07.176Z,77459.38
2019-04-30T08:05:40.197Z,77462.38
2019-04-30T08:08:20.608Z,77461.38
2019-04-30T08:10:34.081Z,77464.38
2019-04-30T08:13:08.386Z,77463.38
2019-04-30T08:15:29.459Z,77462.38
2019-04-30T08:18:03.494Z,77461.38
2019-04-30T08:20:29.611Z,77462.38
2019-04-30T08:23:03.097Z,77456.38
2019-04-30T08:25:28.895Z,77448.37
2019-04-30T08:27:54.738Z,77449.37
2019-04-30T08:30:26.463Z,77447.37
2019-04-30T08:32:49.991Z,77452.38
2019-04-30T08:35:16.028Z,77457.38
2019-04-30T08:37:42.261Z,77456.38
2019-04-30T08:40:08.703Z,77459.38
2019-04-30T08:42:37.557Z,77448.37
2019-04-30T08:45:03.030Z,77452.38
2019-04-30T08:47:29.217Z,77454.38
2019-04-30T08:50:01.592Z,77454.38
2019-04-30T08:52:27.563Z,77451.38
2019-04-30T08:54:53.609Z,77447.37
2019-04-30T08:57:19.695Z,77453.38
2019-04-30T08:59:45.716Z,77448.37
2019-04-30T09:02:16.125Z,77447.37
2019-04-30T09:04:39.515Z,77446.37
2019-04-30T09:07:05.523Z,77433.36
2019-04-30T09:09:31.570Z,77436.36
2019-04-30T09:11:59.148Z,77433.36
2019-04-30T09:14:27.242Z,77433.36
2019-04-30T09:16:53.146Z,77434.36
2019-04-30T09:19:21.034Z,77424.34
2019-04-30T09:21:48.756Z,77426.34
2019-04-30T09:24:14.629Z,77427.34
2019-04-30T09:26:40.575Z,77424.34
2019-04-30T09:29:06.521Z,77430.35
2019-04-30T09:31:32.571Z,77430.35
2019-04-30T09:34:00.781Z,77435.36
2019-04-30T09:36:26.421Z,77429.35
2019-04-30T09:38:52.314Z,77434.36
2019-04-30T09:41:19.262Z,77437.36
2019-04-30T09:43:45.277Z,77431.35
2019-04-30T09:46:21.949Z,77435.36
2019-04-30T09:48:39.214Z,77434.36
2019-04-30T09:51:05.417Z,77436.36
2019-04-30T09:53:31.865Z,77431.35
2019-04-30T09:55:59.623Z,77425.34
2019-04-30T09:58:29.787Z,77429.35
2019-04-30T10:00:59.348Z,77417.34
2019-04-30T10:03:30.809Z,77423.34
2019-04-30T10:05:56.424Z,77420.34
2019-04-30T10:08:22.569Z,77414.34
2019-04-30T10:10:50.522Z,77411.33
2019-04-30T10:13:16.573Z,77410.33
2019-04-30T10:15:58.442Z,77409.33
2019-04-30T10:18:24.548Z,77396.32
2019-04-30T10:20:50.596Z,77404.33
2019-04-30T10:23:16.645Z,77399.32
2019-04-30T10:25:42.637Z,77395.31
2019-04-30T10:28:10.014Z,77394.31
2019-04-30T10:30:36.329Z,77387.31
2019-04-30T10:33:02.379Z,77383.30
2019-04-30T10:35:28.626Z,77383.30
2019-04-30T10:37:54.565Z,77382.30
2019-04-30T10:40:20.503Z,77368.29
2019-04-30T10:42:46.362Z,77371.30
2019-04-30T10:45:12.263Z,77365.29
2019-04-30T10:47:39.334Z,77367.29
2019-04-30T10:50:05.562Z,77363.28
2019-04-30T10:52:31.497Z,77359.28
2019-04-30T10:54:59.418Z,77365.29
2019-04-30T10:57:28.494Z,77365.29
2019-04-30T10:59:54.599Z,77363.28
2019-04-30T11:02:20.854Z,77357.28
2019-04-30T11:04:46.768Z,77360.28
2019-04-30T11:07:12.661Z,77357.28
2019-04-30T11:09:39.371Z,77362.28
2019-04-30T11:12:05.993Z,77355.28
2019-04-30T11:14:31.906Z,77354.28
2019-04-30T11:16:59.945Z,77349.27
2019-04-30T11:19:26.600Z,77352.28
2019-04-30T11:21:52.763Z,77348.27
2019-04-30T11:24:19.692Z,77348.27
2019-04-30T11:26:46.565Z,77348.27
2019-04-30T11:29:13.131Z,77355.28
2019-04-30T11:31:46.884Z,77353.28
2019-04-30T11:34:12.980Z,77353.28
2019-04-30T11:36:39.022Z,77351.27
2019-04-30T11:39:08.605Z,77357.28
2019-04-30T11:41:34.577Z,77350.27
2019-04-30T11:44:00.476Z,77352.28
2019-04-30T11:46:28.771Z,77346.27
2019-04-30T11:48:55.973Z,77344.27
2019-04-30T11:51:21.838Z,77339.27
2019-04-30T11:53:49.055Z,77343.27
2019-04-30T11:56:15.118Z,77345.27
2019-04-30T11:58:41.009Z,77341.27
2019-04-30T12:01:09.348Z,77343.27
2019-04-30T12:03:35.323Z,77340.27
2019-04-30T12:06:01.285Z,77338.27
2019-04-30T12:08:31.758Z,77337.27
2019-04-30T12:10:59.578Z,77331.26
2019-04-30T12:13:27.400Z,77333.26
2019-04-30T12:15:53.711Z,77334.26
2019-04-30T12:18:19.610Z,77331.26
2019-04-30T12:20:45.534Z,77331.26
2019-04-30T12:23:11.936Z,77325.25
2019-04-30T12:25:38.824Z,77325.25
2019-04-30T12:28:05.615Z,77320.25
2019-04-30T12:30:31.509Z,77328.25
2019-04-30T12:32:58.991Z,77327.25
2019-04-30T12:35:27.534Z,77323.25
2019-04-30T12:37:53.438Z,77323.25
2019-04-30T12:40:28.978Z,77321.25
2019-04-30T12:42:48.696Z,77320.25
2019-04-30T12:45:14.731Z,77314.24
2019-04-30T12:47:42.544Z,77317.24
2019-04-30T12:50:10.343Z,77319.25
2019-04-30T12:52:44.077Z,77317.24
2019-04-30T12:55:15.819Z,77311.23
2019-04-30T12:57:55.538Z,77309.23
2019-04-30T13:00:11.673Z,77309.23
2019-04-30T13:02:37.550Z,77309.23
2019-04-30T13:05:04.256Z,77305.23
2019-04-30T13:07:31.058Z,77309.23
2019-04-30T13:09:58.432Z,77303.23
2019-04-30T13:12:28.041Z,77299.23
2019-04-30T13:14:54.900Z,77297.23
2019-04-30T13:17:21.236Z,77292.22
2019-04-30T13:20:44.555Z,77292.22
2019-04-30T13:25:33.946Z,77286.21
2019-04-30T13:27:58.272Z,77288.22
2019-04-30T13:30:23.693Z,77287.22
2019-04-30T13:33:09.495Z,77283.21
2019-04-30T13:35:35.512Z,77281.20
2019-04-30T13:38:09.395Z,77277.20
2019-04-30T13:40:42.832Z,77285.21
2019-04-30T13:43:10.998Z,77278.20
2019-04-30T13:45:38.722Z,77275.20
2019-04-30T13:48:04.601Z,77275.20
2019-04-30T13:50:30.487Z,77271.20
2019-04-30T13:52:56.384Z,77273.20
2019-04-30T13:55:22.267Z,77270.20
2019-04-30T13:57:48.153Z,77270.20
2019-04-30T14:00:22.040Z,77269.20
2019-04-30T14:02:56.185Z,77266.20
2019-04-30T14:05:22.638Z,77262.19
2019-04-30T14:08:07.050Z,77265.20
2019-04-30T14:10:34.933Z,77263.19
2019-04-30T14:13:01.538Z,77265.20
2019-04-30T14:15:28.715Z,77263.19
2019-04-30T14:17:59.580Z,77260.19
2019-04-30T14:20:26.132Z,77263.19
2019-04-30T14:22:52.173Z,77270.20
2019-04-30T14:25:18.223Z,77263.19
2019-04-30T14:27:51.749Z,77253.19
2019-04-30T14:30:12.373Z,77247.17
2019-04-30T14:32:39.603Z,77247.17
2019-04-30T14:35:05.668Z,77249.18
2019-04-30T14:37:31.819Z,77250.18
2019-04-30T14:39:58.415Z,77251.18
2019-04-30T14:42:25.668Z,77252.19
2019-04-30T14:44:54.488Z,77246.17
2019-04-30T14:47:23.327Z,77251.18
2019-04-30T14:50:04.910Z,77250.18
2019-04-30T14:52:29.356Z,77250.18
2019-04-30T14:55:06.410Z,77248.18
2019-04-30T14:57:43.108Z,77251.18
2019-04-30T15:00:20.079Z,77248.18
2019-04-30T15:02:50.025Z,77249.18
2019-04-30T15:05:15.589Z,77250.18
2019-04-30T15:07:41.491Z,77255.19
2019-04-30T15:10:07.413Z,77251.18
2019-04-30T15:12:33.313Z,77247.17
2019-04-30T15:14:59.304Z,77247.17
2019-04-30T15:17:27.482Z,77248.18
2019-04-30T15:19:54.615Z,77242.17
2019-04-30T15:22:21.105Z,77239.17
2019-04-30T15:24:49.082Z,77240.17
2019-04-30T15:27:14.789Z,77243.17
2019-04-30T15:29:40.996Z,77242.17
2019-04-30T15:32:08.599Z,77237.17
2019-04-30T15:34:34.756Z,77239.17
2019-04-30T15:37:00.807Z,77235.17
2019-04-30T15:39:34.953Z,77238.17
2019-04-30T15:42:01.426Z,77235.17
2019-04-30T15:44:27.361Z,77232.16
2019-04-30T15:46:53.424Z,77230.16
2019-04-30T15:49:19.508Z,77240.17
2019-04-30T15:51:45.541Z,77237.17
2019-04-30T15:54:11.482Z,77236.17
2019-04-30T15:56:40.304Z,77236.17
2019-04-30T15:59:10.069Z,77228.16
2019-04-30T16:01:36.529Z,77228.16
2019-04-30T16:04:02.887Z,77230.16
2019-04-30T16:06:28.798Z,77243.17
2019-04-30T16:08:59.698Z,77242.17
2019-04-30T16:11:31.094Z,77241.17
2019-04-30T16:14:15.396Z,77242.17
2019-04-30T16:16:43.190Z,77239.17
2019-04-30T16:19:09.271Z,77240.17
2019-04-30T16:21:35.289Z,77243.17
2019-04-30T16:24:01.347Z,77239.17
2019-04-30T16:26:28.982Z,77244.17
2019-04-30T16:28:55.696Z,77240.17
2019-04-30T16:31:21.648Z,77239.17
2019-04-30T16:33:48.829Z,77227.16
2019-04-30T16:36:15.443Z,77230.16
2019-04-30T16:38:41.777Z,77233.16
2019-04-30T16:41:08.877Z,77228.16
2019-04-30T16:43:34.896Z,77227.16
2019-04-30T16:46:00.786Z,77236.17
2019-04-30T16:48:28.549Z,77230.16
2019-04-30T16:50:54.502Z,77224.16
2019-04-30T16:53:20.539Z,77224.16
2019-04-30T16:55:50.017Z,77226.16
2019-04-30T16:58:14.287Z,77230.16
2019-04-30T17:00:40.353Z,77224.16
2019-04-30T17:03:20.646Z,77228.16
2019-04-30T17:05:49.927Z,77231.16
2019-04-30T17:08:19.331Z,77234.16
2019-04-30T17:10:47.317Z,77233.16
2019-04-30T17:13:18.886Z,77231.16
2019-04-30T17:15:49.868Z,77228.16
2019-04-30T17:18:15.918Z,77243.17
2019-04-30T17:20:41.864Z,77239.17
2019-04-30T17:23:09.474Z,77238.17
2019-04-30T17:25:35.622Z,77238.17
2019-04-30T17:28:01.723Z,77239.17
2019-04-30T17:30:29.331Z,77237.17
2019-04-30T17:32:59.767Z,77232.16
2019-04-30T17:35:29.475Z,77239.17
2019-04-30T17:37:58.501Z,77237.17
2019-04-30T17:40:24.650Z,77239.17
2019-04-30T17:42:50.611Z,77238.17
2019-04-30T17:45:16.958Z,77235.17
2019-04-30T17:47:43.211Z,77240.17
2019-04-30T17:50:09.364Z,77245.17
2019-04-30T17:52:35.424Z,77247.17
2019-04-30T17:55:01.474Z,77248.18
2019-04-30T17:57:32.253Z,77247.17
2019-04-30T17:59:59.178Z,77243.17
2019-04-30T18:02:28.898Z,77249.18
2019-04-30T18:04:56.242Z,77246.17
2019-04-30T18:07:22.491Z,77245.17
2019-04-30T18:09:48.795Z,77244.17
2019-04-30T18:12:14.928Z,77247.17
2019-04-30T18:14:40.974Z,77243.17
2019-04-30T18:17:07.024Z,77249.18
2019-04-30T18:19:44.547Z,77251.18
2019-04-30T18:22:12.549Z,77253.19
2019-04-30T18:24:52.441Z,77249.18
2019-04-30T18:27:22.999Z,77252.19
2019-04-30T18:29:49.048Z,77249.18
2019-04-30T18:32:14.995Z,77252.19
2019-04-30T18:34:40.992Z,77245.17
2019-04-30T18:37:08.901Z,77250.18
2019-04-30T18:39:34.787Z,77256.19
2019-04-30T18:42:00.838Z,77253.19
2019-04-30T18:44:29.385Z,77253.19
2019-04-30T18:46:55.186Z,77254.19
2019-04-30T18:49:21.228Z,77251.18
2019-04-30T18:51:49.126Z,77255.19
2019-04-30T18:54:15.007Z,77253.19
2019-04-30T18:56:40.957Z,77259.19
2019-04-30T18:59:08.765Z,77263.19
2019-04-30T19:01:35.264Z,77267.20
2019-04-30T19:04:01.662Z,77267.20
2019-04-30T19:06:29.369Z,77278.20
2019-04-30T19:09:03.038Z,77280.20
2019-04-30T19:11:39.635Z,77280.20
2019-04-30T19:14:10.804Z,77282.20
2019-04-30T19:16:42.225Z,77275.20
2019-04-30T19:19:13.142Z,77277.20
2019-04-30T19:21:40.374Z,77278.20
2019-04-30T19:24:08.540Z,77275.20
2019-04-30T19:26:34.774Z,77280.20
2019-04-30T19:29:00.822Z,77287.22
2019-04-30T19:31:26.812Z,77287.22
2019-04-30T19:33:53.121Z,77291.22
2019-04-30T19:36:20.989Z,77285.21
2019-04-30T19:38:48.509Z,77283.21
2019-04-30T19:41:15.262Z,77278.20
2019-04-30T19:43:41.323Z,77277.20
2019-04-30T19:46:09.187Z,77282.20
2019-04-30T19:48:35.380Z,77281.20
2019-04-30T19:51:01.849Z,77287.22
2019-04-30T19:53:27.913Z,77283.21
2019-04-30T19:55:54.365Z,77283.21
2019-04-30T19:58:29.375Z,77279.20
2019-04-30T20:00:49.894Z,77279.20
2019-04-30T20:03:15.998Z,77280.20
2019-04-30T20:05:42.046Z,77281.20
2019-04-30T20:08:10.791Z,77289.22
2019-04-30T20:10:36.601Z,77294.22
2019-04-30T20:13:03.060Z,77296.22
2019-04-30T20:15:29.779Z,77288.22
2019-04-30T20:17:55.977Z,77290.22
2019-04-30T20:20:22.030Z,77283.21
2019-04-30T20:22:48.092Z,77281.20
2019-04-30T20:25:14.142Z,77283.21
2019-04-30T20:27:40.191Z,77281.20
2019-04-30T20:30:09.087Z,77283.21
2019-04-30T20:32:36.662Z,77285.21
2019-04-30T20:35:04.387Z,77281.20
2019-04-30T20:37:30.272Z,77285.21
2019-04-30T20:40:04.218Z,77287.22
2019-04-30T20:42:30.116Z,77290.22
2019-04-30T20:44:56.106Z,77283.21
2019-04-30T20:47:22.113Z,77277.20
2019-04-30T20:49:49.017Z,77277.20
2019-04-30T20:52:15.134Z,77281.20
2019-04-30T20:54:41.609Z,77279.20
2019-04-30T20:57:08.757Z,77273.20
2019-04-30T20:59:34.851Z,77280.20
2019-04-30T21:02:00.899Z,77271.20
2019-04-30T21:04:26.948Z,77275.20
2019-04-30T21:06:53.000Z,77276.20
2019-04-30T21:09:19.342Z,77275.20
2019-04-30T21:11:45.401Z,77271.20
2019-04-30T21:14:11.479Z,77275.20
2019-04-30T21:16:37.938Z,77273.20
2019-04-30T21:19:03.872Z,77281.20
2019-04-30T21:21:29.837Z,77281.20
2019-04-30T21:23:59.070Z,77278.20
2019-04-30T21:26:25.428Z,77276.20
2019-04-30T21:28:51.469Z,77279.20
2019-04-30T21:31:34.434Z,77282.20
2019-04-30T21:34:02.370Z,77275.20
2019-04-30T21:36:28.563Z,77279.20
2019-04-30T21:38:54.727Z,77277.20
2019-04-30T21:41:20.777Z,77274.20
2019-04-30T21:43:46.826Z,77269.20
2019-04-30T21:46:33.136Z,77269.20
2019-04-30T21:49:01.182Z,77267.20
2019-04-30T21:51:30.171Z,77264.19
2019-04-30T21:53:56.165Z,77268.20
2019-04-30T21:56:22.540Z,77267.20
2019-04-30T21:58:49.160Z,77269.20
2019-04-30T22:01:20.026Z,77265.20
2019-04-30T22:03:47.403Z,77265.20
2019-04-30T22:06:13.922Z,77265.20
2019-04-30T22:08:40.218Z,77260.19
2019-04-30T22:11:06.583Z,77257.19
2019-04-30T22:13:32.572Z,77255.19
2019-04-30T22:15:58.737Z,77254.19
2019-04-30T22:18:25.001Z,77254.19
2019-04-30T22:20:54.810Z,77252.19
2019-04-30T22:23:20.799Z,77247.17
2019-04-30T22:37:37.044Z,77245.17
2019-04-30T22:45:29.518Z,77240.17
2019-04-30T22:47:55.552Z,77240.17
2019-04-30T22:50:21.602Z,77235.17
2019-04-30T22:52:53.396Z,77235.17
2019-04-30T22:55:19.435Z,77235.17
2019-04-30T22:57:45.486Z,77235.17
2019-04-30T23:00:13.381Z,77230.16
2019-04-30T23:02:41.679Z,77231.16
2019-04-30T23:05:09.676Z,77230.16
2019-04-30T23:07:40.697Z,77222.16
2019-04-30T23:13:03.580Z,77225.16
2019-04-30T23:15:36.808Z,77219.16
2019-04-30T23:18:16.907Z,77217.16
2019-04-30T23:23:38.884Z,77215.15
2019-04-30T23:26:08.636Z,77214.15
2019-04-30T23:28:43.715Z,77210.14
2019-04-30T23:31:14.047Z,77205.14
2019-04-30T23:36:36.462Z,77204.14
2019-04-30T23:39:06.130Z,77200.14
2019-04-30T23:41:47.201Z,77197.13
2019-04-30T23:44:13.580Z,77199.14
2019-04-30T23:46:39.447Z,77194.13
2019-04-30T23:49:05.682Z,77194.13
2019-04-30T23:51:39.912Z,77189.13
2019-04-30T23:54:06.202Z,77187.13
2019-04-30T23:56:35.547Z,77187.13
2019-04-30T23:59:01.371Z,77181.12
